Time;durP1;ratioP1;P1;durP2;ratioP2;P2;SDS_P1;SDS_P2;PMS_P1;PMS_P2;Temp;Humidity;BMP_temperature;BMP_pressure;BME280_temperature;BME280_humidity;BME280_pressure;Samples;Min_cycle;Max_cycle;Signal;HPM_P1;HPM_P2
2024/02/13 00:01:58;;;;;;;747.43;688.47;;;2.70;99.90;;;;;;5043049;28;20452;-67
2024/02/13 00:04:26;;;;;;;751.97;691.60;;;2.80;99.90;;;;;;5051696;28;20942;-67
2024/02/13 00:06:55;;;;;;;762.87;702.70;;;2.80;99.90;;;;;;5051337;28;20461;-67
2024/02/13 00:09:22;;;;;;;772.90;713.40;;;2.80;99.90;;;;;;5051872;28;20455;-66
2024/02/13 00:11:50;;;;;;;779.10;718.80;;;2.80;99.90;;;;;;5051503;28;20872;-68
2024/02/13 00:14:17;;;;;;;767.20;706.77;;;2.80;99.90;;;;;;5051812;28;20522;-67
2024/02/13 00:16:44;;;;;;;763.30;703.37;;;2.70;99.90;;;;;;5051441;28;20463;-67
2024/02/13 00:19:11;;;;;;;795.50;734.50;;;2.70;99.90;;;;;;5051378;28;20459;-66
2024/02/13 00:21:39;;;;;;;812.67;750.13;;;2.60;99.90;;;;;;5051008;28;20463;-66
2024/02/13 00:24:06;;;;;;;828.53;764.33;;;2.50;99.90;;;;;;5051496;28;20479;-67
2024/02/13 00:26:34;;;;;;;843.10;777.00;;;2.60;99.90;;;;;;5051671;28;20604;-67
2024/02/13 00:29:02;;;;;;;843.13;777.60;;;2.60;99.90;;;;;;5051448;28;20459;-67
2024/02/13 00:31:29;;;;;;;836.30;770.00;;;2.60;99.90;;;;;;5051410;28;20455;-67
2024/02/13 00:33:56;;;;;;;849.17;781.43;;;2.70;99.90;;;;;;5050880;28;20493;-68
2024/02/13 00:36:23;;;;;;;844.97;777.57;;;2.70;99.90;;;;;;5051586;28;20459;-66
2024/02/13 00:38:52;;;;;;;837.00;769.43;;;2.70;99.90;;;;;;5051470;28;20497;-67
2024/02/13 00:41:19;;;;;;;847.97;780.20;;;2.70;99.90;;;;;;5051338;28;20462;-66
2024/02/13 00:43:46;;;;;;;848.33;780.10;;;2.60;99.90;;;;;;5051096;28;20467;-67
2024/02/13 00:46:12;;;;;;;853.80;785.30;;;2.70;99.90;;;;;;5054481;28;20477;-67
2024/02/13 00:48:40;;;;;;;865.13;796.40;;;2.70;99.90;;;;;;5054734;28;20477;-66
2024/02/13 00:51:06;;;;;;;848.07;780.00;;;2.80;99.90;;;;;;5054945;28;20451;-67
2024/02/13 00:53:37;;;;;;;857.80;787.80;;;2.70;99.90;;;;;;5054783;28;20483;-67
2024/02/13 00:56:07;;;;;;;861.80;791.77;;;2.70;99.90;;;;;;5055031;28;20487;-67
2024/02/13 00:58:36;;;;;;;862.60;792.43;;;2.70;99.90;;;;;;5054579;28;20489;-67
2024/02/13 01:01:03;;;;;;;862.07;791.43;;;2.70;99.90;;;;;;5054436;28;20455;-67
2024/02/13 01:03:30;;;;;;;842.70;773.10;;;2.90;99.90;;;;;;5054912;28;20536;-67
2024/02/13 01:05:57;;;;;;;844.50;775.10;;;2.70;99.90;;;;;;5054561;28;20461;-67
2024/02/13 01:08:24;;;;;;;860.23;788.17;;;2.70;99.90;;;;;;5054642;28;20455;-67
2024/02/13 01:10:51;;;;;;;872.20;800.53;;;2.60;99.90;;;;;;5054539;28;20455;-67
2024/02/13 01:13:19;;;;;;;875.07;802.60;;;2.70;99.90;;;;;;5054078;28;20517;-67
2024/02/13 01:15:46;;;;;;;881.43;807.90;;;2.60;99.90;;;;;;5054130;28;20829;-68
2024/02/13 01:18:15;;;;;;;871.80;798.40;;;2.70;99.90;;;;;;5054558;28;20520;-67
2024/02/13 01:20:42;;;;;;;873.83;800.00;;;2.70;99.90;;;;;;5054379;28;20451;-67
2024/02/13 01:23:11;;;;;;;867.17;793.27;;;2.60;99.90;;;;;;5054041;28;20475;-67
2024/02/13 01:25:39;;;;;;;855.23;782.03;;;2.60;99.90;;;;;;5054437;28;20512;-67
2024/02/13 01:28:07;;;;;;;850.87;777.30;;;2.60;99.90;;;;;;5053997;28;20452;-68
2024/02/13 01:30:35;;;;;;;859.50;784.53;;;2.60;99.90;;;;;;5054612;28;20451;-67
2024/02/13 01:33:03;;;;;;;862.87;788.30;;;2.60;99.90;;;;;;5053778;28;20978;-66
2024/02/13 01:35:29;;;;;;;864.77;789.17;;;2.60;99.90;;;;;;5054354;28;20856;-67
2024/02/13 01:37:57;;;;;;;851.20;775.80;;;2.70;99.90;;;;;;5054369;28;20451;-67
2024/02/13 01:40:24;;;;;;;847.67;771.30;;;2.70;99.90;;;;;;5053987;28;20849;-67
2024/02/13 01:42:51;;;;;;;842.83;767.13;;;2.80;99.90;;;;;;5053239;28;20475;-67
2024/02/13 01:45:18;;;;;;;841.37;766.40;;;2.90;99.90;;;;;;5054003;28;20451;-67
2024/02/13 01:47:47;;;;;;;846.27;771.40;;;2.90;99.90;;;;;;5053953;28;20447;-68
2024/02/13 01:50:17;;;;;;;828.53;754.80;;;3.00;99.90;;;;;;5053925;28;20455;-67
2024/02/13 01:52:46;;;;;;;829.43;755.73;;;3.00;99.90;;;;;;5053226;28;20884;-67
2024/02/13 01:55:16;;;;;;;825.83;752.50;;;2.90;99.90;;;;;;5053420;28;20934;-66
2024/02/13 01:57:43;;;;;;;832.80;759.50;;;2.90;99.90;;;;;;5052527;28;21038;-67
2024/02/13 02:00:14;;;;;;;832.37;759.10;;;2.90;99.90;;;;;;5053583;28;20451;-67
2024/02/13 02:02:43;;;;;;;826.60;751.80;;;2.90;99.90;;;;;;5053215;28;20524;-67
2024/02/13 02:05:13;;;;;;;824.70;752.33;;;3.00;99.90;;;;;;5053617;28;20443;-67
2024/02/13 02:07:41;;;;;;;827.73;754.30;;;2.90;99.90;;;;;;5053253;28;20451;-66
2024/02/13 02:10:09;;;;;;;833.80;759.47;;;2.90;99.90;;;;;;5053687;28;20477;-67
2024/02/13 02:12:36;;;;;;;830.67;756.70;;;3.00;99.90;;;;;;5052794;28;20471;-67
2024/02/13 02:15:04;;;;;;;836.73;763.20;;;3.00;99.90;;;;;;5053174;28;20536;-67
2024/02/13 02:17:31;;;;;;;826.40;753.30;;;3.10;99.90;;;;;;5053257;28;20542;-68
2024/02/13 02:19:58;;;;;;;830.83;758.13;;;3.10;99.90;;;;;;5053208;28;20567;-67
2024/02/13 02:22:25;;;;;;;831.97;758.00;;;3.00;99.90;;;;;;5053040;28;20558;-68
2024/02/13 02:24:52;;;;;;;835.50;761.67;;;3.10;99.90;;;;;;5053350;28;20543;-67
2024/02/13 02:27:20;;;;;;;832.80;759.90;;;3.10;99.90;;;;;;5053184;28;20829;-67
2024/02/13 02:29:47;;;;;;;831.73;759.40;;;3.10;99.90;;;;;;5053093;28;20447;-67
2024/02/13 02:32:14;;;;;;;836.67;763.43;;;3.00;99.90;;;;;;5052631;28;21010;-68
2024/02/13 02:34:41;;;;;;;824.00;752.17;;;3.00;99.90;;;;;;5052647;28;20475;-67
2024/02/13 02:37:07;;;;;;;831.10;758.73;;;3.00;99.90;;;;;;5052761;28;20448;-67
2024/02/13 02:39:34;;;;;;;833.97;761.53;;;3.00;99.90;;;;;;5052958;28;20457;-68
2024/02/13 02:42:01;;;;;;;839.63;767.07;;;3.00;99.90;;;;;;5052396;28;20962;-67
2024/02/13 02:44:30;;;;;;;832.73;760.87;;;3.00;99.90;;;;;;5052741;28;20451;-67
2024/02/13 02:46:56;;;;;;;833.40;760.93;;;3.00;99.90;;;;;;5052583;28;20455;-67
2024/02/13 02:49:23;;;;;;;829.83;757.47;;;3.00;99.90;;;;;;5052468;28;20955;-67
2024/02/13 02:51:50;;;;;;;826.33;754.90;;;3.00;99.90;;;;;;5052532;28;20501;-67
2024/02/13 02:54:17;;;;;;;824.10;752.70;;;3.00;99.90;;;;;;5052245;28;20519;-67
2024/02/13 02:56:44;;;;;;;836.40;764.63;;;3.00;99.90;;;;;;5052480;28;20463;-66
2024/02/13 02:59:11;;;;;;;835.63;763.70;;;2.90;99.90;;;;;;5052263;28;20463;-68
2024/02/13 03:01:39;;;;;;;841.43;768.83;;;2.90;99.90;;;;;;5052259;28;20466;-67
2024/02/13 03:04:07;;;;;;;846.37;773.43;;;2.90;99.90;;;;;;5052072;28;20467;-68
2024/02/13 03:06:34;;;;;;;857.20;784.73;;;2.80;99.90;;;;;;5052280;28;20538;-67
2024/02/13 03:09:02;;;;;;;858.83;786.60;;;2.80;99.90;;;;;;5052031;28;20513;-68
2024/02/13 03:11:29;;;;;;;866.63;792.87;;;2.80;99.90;;;;;;5052066;28;20462;-67
2024/02/13 03:13:55;;;;;;;874.60;801.03;;;2.80;99.90;;;;;;5051798;28;20487;-68
2024/02/13 03:16:22;;;;;;;847.43;773.57;;;2.80;99.90;;;;;;5052011;28;20469;-67
2024/02/13 03:18:50;;;;;;;850.63;776.90;;;2.80;99.90;;;;;;5051926;28;20818;-67
2024/02/13 03:21:17;;;;;;;846.83;773.33;;;2.90;99.90;;;;;;5052044;28;20457;-67
2024/02/13 03:23:44;;;;;;;834.67;761.53;;;2.90;99.90;;;;;;5052064;28;20568;-67
2024/02/13 03:26:11;;;;;;;838.23;764.37;;;2.90;99.90;;;;;;5052122;28;20451;-67
2024/02/13 03:28:38;;;;;;;853.73;780.00;;;2.90;99.90;;;;;;5051929;28;20988;-67
2024/02/13 03:31:05;;;;;;;850.53;776.20;;;3.00;99.90;;;;;;5051879;28;20447;-68
2024/02/13 03:33:32;;;;;;;843.50;770.73;;;3.00;99.90;;;;;;5051853;28;20475;-65
2024/02/13 03:36:00;;;;;;;843.30;770.27;;;3.00;99.90;;;;;;5052427;28;20447;-67
2024/02/13 03:38:27;;;;;;;845.37;772.53;;;3.00;99.90;;;;;;5052149;28;20456;-66
2024/02/13 03:40:54;;;;;;;843.77;771.10;;;3.00;99.90;;;;;;5051839;28;20916;-66
2024/02/13 03:43:21;;;;;;;838.37;764.30;;;3.00;99.90;;;;;;5051442;28;20467;-67
2024/02/13 03:45:49;;;;;;;841.50;768.70;;;3.00;99.90;;;;;;5051450;28;20451;-68
2024/02/13 03:48:16;;;;;;;831.50;758.40;;;2.90;99.90;;;;;;5051770;28;20450;-67
2024/02/13 03:50:43;;;;;;;839.37;766.70;;;2.90;99.90;;;;;;5051878;28;20451;-68
2024/02/13 03:53:13;;;;;;;838.50;764.83;;;2.90;99.90;;;;;;5051504;28;20845;-67
2024/02/13 03:55:40;;;;;;;836.60;763.33;;;2.90;99.90;;;;;;5051701;28;20518;-67
2024/02/13 03:58:07;;;;;;;855.60;782.23;;;3.00;99.90;;;;;;5051527;28;20466;-67
2024/02/13 04:00:34;;;;;;;856.83;783.60;;;3.10;99.90;;;;;;5051543;28;20467;-67
2024/02/13 04:03:01;;;;;;;851.27;780.03;;;3.10;99.90;;;;;;5051520;28;20483;-67
2024/02/13 04:05:28;;;;;;;858.20;786.37;;;3.10;99.90;;;;;;5051744;28;20447;-66
2024/02/13 04:07:55;;;;;;;853.47;782.20;;;3.10;99.90;;;;;;5051666;28;20455;-67
2024/02/13 04:10:24;;;;;;;845.17;775.97;;;3.20;99.90;;;;;;5051457;28;20451;-67
2024/02/13 04:12:51;;;;;;;843.10;773.47;;;3.10;99.90;;;;;;5051122;28;20653;-68
2024/02/13 04:15:18;;;;;;;822.83;753.77;;;3.10;99.90;;;;;;5051682;28;20863;-68
2024/02/13 04:17:47;;;;;;;833.23;762.63;;;3.20;99.90;;;;;;5051282;28;20972;-67
2024/02/13 04:20:15;;;;;;;825.73;756.00;;;3.20;99.90;;;;;;5053310;28;20455;-67
2024/02/13 04:22:42;;;;;;;827.73;757.23;;;3.20;99.90;;;;;;5054880;28;20474;-67
2024/02/13 04:25:09;;;;;;;823.73;754.27;;;3.30;99.90;;;;;;5055371;28;20451;-67
2024/02/13 04:27:38;;;;;;;824.23;754.93;;;3.30;99.90;;;;;;5055298;28;20990;-67
2024/02/13 04:30:08;;;;;;;846.03;775.77;;;3.20;99.90;;;;;;5055335;28;20546;-68
2024/02/13 04:32:37;;;;;;;852.80;783.03;;;3.20;99.90;;;;;;5054893;28;20481;-66
2024/02/13 04:35:05;;;;;;;854.03;784.17;;;3.20;99.90;;;;;;5055309;28;20992;-68
2024/02/13 04:37:32;;;;;;;847.47;777.80;;;3.20;99.90;;;;;;5055185;28;20463;-66
2024/02/13 04:40:00;;;;;;;850.50;779.57;;;3.10;99.90;;;;;;5047035;28;20447;-68
2024/02/13 04:42:32;;;;;;;846.40;776.47;;;3.10;99.90;;;;;;5054931;28;20471;-68
2024/02/13 04:45:01;;;;;;;838.00;768.30;;;3.10;99.90;;;;;;5055315;28;20867;-67
2024/02/13 04:47:28;;;;;;;836.93;764.83;;;3.00;99.90;;;;;;5055015;28;20451;-67
2024/02/13 04:49:55;;;;;;;832.67;761.10;;;3.00;99.90;;;;;;5054965;28;20458;-67
2024/02/13 04:52:22;;;;;;;822.10;750.77;;;3.10;99.90;;;;;;5054177;28;20566;-67
2024/02/13 04:54:49;;;;;;;819.10;749.00;;;3.10;99.90;;;;;;5054930;28;20858;-68
2024/02/13 04:57:17;;;;;;;830.27;758.73;;;3.00;99.90;;;;;;5055023;28;20841;-66
2024/02/13 04:59:48;;;;;;;834.50;762.20;;;3.10;99.90;;;;;;5055252;28;20471;-67
2024/02/13 05:02:18;;;;;;;836.33;763.83;;;3.10;99.90;;;;;;5054475;28;20478;-67
2024/02/13 05:07:29;;;;;;;812.37;741.70;;;3.10;99.90;;;;;;5054573;28;20565;-67
2024/02/13 05:09:56;;;;;;;813.30;743.33;;;3.10;99.90;;;;;;5054684;28;20807;-67
2024/02/13 05:12:23;;;;;;;813.83;743.97;;;3.10;99.90;;;;;;5054076;28;20528;-67
2024/02/13 05:14:51;;;;;;;811.97;742.80;;;3.10;99.90;;;;;;5054367;28;20475;-67
2024/02/13 05:17:19;;;;;;;829.33;757.43;;;3.00;99.90;;;;;;5054386;28;20457;-67
2024/02/13 05:19:48;;;;;;;828.00;756.23;;;3.00;99.90;;;;;;5054368;28;20455;-67
2024/02/13 05:22:16;;;;;;;826.83;755.33;;;3.00;99.90;;;;;;5053839;28;20479;-67
2024/02/13 05:24:43;;;;;;;809.13;738.00;;;2.90;99.90;;;;;;5054380;28;20904;-67
2024/02/13 05:27:10;;;;;;;811.73;741.60;;;2.90;99.90;;;;;;5054315;28;20465;-67
2024/02/13 05:29:37;;;;;;;815.40;744.43;;;2.90;99.90;;;;;;5054099;28;20451;-67
2024/02/13 05:32:04;;;;;;;820.13;748.33;;;2.90;99.90;;;;;;5053363;28;20474;-67
2024/02/13 05:34:32;;;;;;;820.83;749.27;;;2.90;99.90;;;;;;5054122;28;20483;-67
2024/02/13 05:36:59;;;;;;;820.57;749.93;;;2.80;99.90;;;;;;5045805;28;20455;-67
2024/02/13 05:39:26;;;;;;;823.60;753.60;;;2.80;99.90;;;;;;5053835;28;20451;-67
2024/02/13 05:41:54;;;;;;;815.27;746.67;;;2.80;99.90;;;;;;5053450;28;20467;-67
2024/02/13 05:44:21;;;;;;;820.53;750.53;;;2.80;99.90;;;;;;5053685;28;20454;-67
2024/02/13 05:46:48;;;;;;;822.00;752.97;;;2.70;99.90;;;;;;5053890;28;20451;-67
2024/02/13 05:49:15;;;;;;;818.47;749.60;;;2.70;99.90;;;;;;5054049;28;20443;-67
2024/02/13 05:51:43;;;;;;;827.30;757.20;;;2.70;99.90;;;;;;5053473;28;20466;-67
2024/02/13 05:54:12;;;;;;;835.63;765.00;;;2.70;99.90;;;;;;5053557;28;20471;-68
2024/02/13 05:56:39;;;;;;;819.93;749.90;;;2.70;99.90;;;;;;5053365;28;20969;-67
2024/02/13 05:59:06;;;;;;;822.30;752.83;;;2.80;99.90;;;;;;5053212;28;20459;-67
2024/02/13 06:01:33;;;;;;;823.13;754.43;;;2.80;99.90;;;;;;5053417;28;20743;-67
2024/02/13 06:04:03;;;;;;;816.43;748.13;;;2.80;99.90;;;;;;5045201;28;20475;-67
2024/02/13 06:06:30;;;;;;;825.10;756.30;;;2.80;99.90;;;;;;5053397;28;20487;-68
2024/02/13 06:08:58;;;;;;;832.63;764.10;;;2.70;99.90;;;;;;5053259;28;20455;-67
2024/02/13 06:11:25;;;;;;;831.03;762.73;;;2.70;99.90;;;;;;5052716;28;20822;-67
2024/02/13 06:13:52;;;;;;;820.57;754.10;;;2.70;99.90;;;;;;5052949;28;20471;-67
2024/02/13 06:16:19;;;;;;;813.40;746.20;;;2.70;99.90;;;;;;5053323;28;20487;-68
2024/02/13 06:18:46;;;;;;;816.93;749.40;;;2.70;99.90;;;;;;5053216;28;20833;-67
2024/02/13 06:21:13;;;;;;;801.63;734.40;;;2.70;99.90;;;;;;5052804;28;20541;-68
2024/02/13 06:23:41;;;;;;;797.93;731.90;;;2.70;99.90;;;;;;5052826;28;20840;-67
2024/02/13 06:26:11;;;;;;;808.90;741.03;;;2.70;99.90;;;;;;5052856;28;20970;-67
2024/02/13 06:28:37;;;;;;;808.33;740.97;;;2.70;99.90;;;;;;5052884;28;20559;-68
2024/02/13 06:31:04;;;;;;;794.10;725.90;;;2.70;99.90;;;;;;5052800;28;20545;-67
2024/02/13 06:33:31;;;;;;;793.27;726.97;;;2.70;99.90;;;;;;5052835;28;20476;-67
2024/02/13 06:35:58;;;;;;;794.77;728.40;;;2.80;99.90;;;;;;5052655;28;20490;-67
2024/02/13 06:38:25;;;;;;;804.73;736.67;;;2.60;99.90;;;;;;5052713;28;20490;-67
2024/02/13 06:40:52;;;;;;;799.57;731.93;;;2.70;99.90;;;;;;5052661;28;20455;-67
2024/02/13 06:43:20;;;;;;;799.00;730.93;;;2.70;99.90;;;;;;5051854;28;20853;-67
2024/02/13 06:45:48;;;;;;;816.23;747.70;;;2.70;99.90;;;;;;5052415;28;20455;-67
2024/02/13 06:48:16;;;;;;;829.60;760.03;;;2.80;99.90;;;;;;5052479;28;20455;-67
2024/02/13 06:50:42;;;;;;;808.10;741.07;;;2.80;99.90;;;;;;5051599;28;20470;-68
2024/02/13 06:53:09;;;;;;;807.83;741.23;;;2.80;99.90;;;;;;5051084;28;20475;-67
2024/02/13 06:55:36;;;;;;;802.77;736.43;;;2.90;99.90;;;;;;5052460;28;20490;-67
2024/02/13 06:58:03;;;;;;;816.13;750.63;;;2.90;99.90;;;;;;5053285;28;20458;-67
2024/02/13 07:00:32;;;;;;;793.47;729.07;;;2.90;99.90;;;;;;5052944;28;20463;-71
2024/02/13 07:03:00;;;;;;;794.43;729.83;;;3.00;99.90;;;;;;5052157;28;20491;-67
2024/02/13 07:05:27;;;;;;;782.17;718.90;;;3.00;99.90;;;;;;5052196;28;20443;-67
2024/02/13 07:07:54;;;;;;;769.57;706.60;;;3.10;99.90;;;;;;5052039;28;20462;-67
2024/02/13 07:10:21;;;;;;;772.63;710.17;;;3.20;99.90;;;;;;5052309;28;20478;-66
2024/02/13 07:12:47;;;;;;;759.17;698.77;;;3.20;99.90;;;;;;5052184;28;20483;-67
2024/02/13 07:15:14;;;;;;;750.67;691.07;;;3.30;99.90;;;;;;5052314;28;20483;-67
2024/02/13 07:17:42;;;;;;;756.27;696.67;;;3.30;99.90;;;;;;5051896;28;20447;-67
2024/02/13 07:20:11;;;;;;;755.87;697.57;;;3.40;99.90;;;;;;5052002;28;20534;-66
2024/02/13 07:22:39;;;;;;;752.87;695.47;;;3.40;99.90;;;;;;5051752;28;20529;-68
2024/02/13 07:25:08;;;;;;;735.17;680.57;;;3.50;99.90;;;;;;5052467;28;20455;-67
2024/02/13 07:27:36;;;;;;;748.80;694.10;;;3.50;99.90;;;;;;5052013;28;20905;-68
2024/02/13 07:30:06;;;;;;;743.53;688.50;;;3.50;99.90;;;;;;5052008;28;20511;-67
2024/02/13 07:32:33;;;;;;;749.00;693.33;;;3.50;99.90;;;;;;5051311;28;20503;-64
2024/02/13 07:35:04;;;;;;;741.13;687.23;;;3.50;99.90;;;;;;5051933;28;20570;-67
2024/02/13 07:37:31;;;;;;;749.80;696.10;;;3.60;99.90;;;;;;5052249;28;20467;-67
2024/02/13 07:39:58;;;;;;;753.67;700.60;;;3.60;99.90;;;;;;5049551;28;20834;-67
2024/02/13 07:42:27;;;;;;;755.80;702.97;;;3.70;99.90;;;;;;5050440;28;20545;-66
2024/02/13 07:44:55;;;;;;;750.97;698.00;;;3.70;99.90;;;;;;5050066;28;20455;-67
2024/02/13 07:47:22;;;;;;;736.40;684.70;;;3.80;99.90;;;;;;5051088;28;20451;-66
2024/02/13 07:49:49;;;;;;;720.27;670.47;;;3.80;99.90;;;;;;5051847;28;20521;-67
2024/02/13 07:52:17;;;;;;;713.90;664.50;;;4.00;99.90;;;;;;5053797;28;21013;-67
2024/02/13 07:54:44;;;;;;;717.73;668.83;;;3.90;99.90;;;;;;5055656;28;20459;-68
2024/02/13 07:57:14;;;;;;;694.93;647.23;;;4.00;99.90;;;;;;5056278;28;20466;-67
2024/02/13 07:59:41;;;;;;;699.87;653.10;;;4.00;99.90;;;;;;5055719;28;20463;-67
2024/02/13 08:02:09;;;;;;;685.70;640.20;;;4.00;99.90;;;;;;5055587;28;20451;-67
2024/02/13 08:04:36;;;;;;;672.20;628.93;;;4.10;99.90;;;;;;5055812;28;20963;-67
2024/02/13 08:07:03;;;;;;;668.97;625.23;;;4.20;99.90;;;;;;5055724;28;20447;-70
2024/02/13 08:09:32;;;;;;;670.43;628.10;;;4.20;99.90;;;;;;5055758;28;20451;-70
2024/02/13 08:12:01;;;;;;;663.77;620.87;;;4.30;99.90;;;;;;5055211;28;20923;-70
2024/02/13 08:14:28;;;;;;;660.60;617.70;;;4.40;99.90;;;;;;5055058;28;20539;-67
2024/02/13 08:16:55;;;;;;;646.57;606.27;;;4.50;99.90;;;;;;5055292;28;20486;-68
2024/02/13 08:19:22;;;;;;;636.90;598.23;;;4.50;99.90;;;;;;5055461;28;20836;-67
2024/02/13 08:21:49;;;;;;;634.70;597.23;;;4.60;99.90;;;;;;5055120;28;20486;-67
2024/02/13 08:24:17;;;;;;;601.63;565.93;;;4.50;99.90;;;;;;5055266;28;20507;-67
2024/02/13 08:26:46;;;;;;;574.47;540.93;;;4.60;99.90;;;;;;5055276;28;20449;-67
2024/02/13 08:29:13;;;;;;;589.07;555.07;;;4.60;99.90;;;;;;5054937;28;20545;-68
2024/02/13 08:31:41;;;;;;;560.50;528.40;;;4.70;99.90;;;;;;5055327;28;20467;-69
2024/02/13 08:34:07;;;;;;;560.30;528.50;;;4.70;99.90;;;;;;5055308;28;20850;-73
2024/02/13 08:36:37;;;;;;;571.53;539.53;;;4.70;99.90;;;;;;5055074;28;20479;-68
2024/02/13 08:39:04;;;;;;;574.70;542.13;;;4.80;99.90;;;;;;5055186;28;20455;-66
2024/02/13 08:41:31;;;;;;;537.30;506.50;;;5.00;99.90;;;;;;5054358;28;20461;-67
2024/02/13 08:43:59;;;;;;;491.53;465.50;;;4.90;99.90;;;;;;5049967;28;20738;-67
2024/02/13 08:46:26;;;;;;;462.17;438.73;;;5.10;99.90;;;;;;5054506;28;20842;-66
2024/02/13 08:48:53;;;;;;;456.47;434.10;;;5.10;99.90;;;;;;5053999;28;20501;-66
2024/02/13 08:51:24;;;;;;;443.70;422.20;;;5.10;99.90;;;;;;5053443;28;20455;-67
2024/02/13 08:53:51;;;;;;;439.43;418.30;;;5.20;99.90;;;;;;5053235;28;20482;-67
2024/02/13 08:56:18;;;;;;;423.17;403.00;;;5.20;99.90;;;;;;5054222;28;20852;-67
2024/02/13 08:58:45;;;;;;;391.20;373.40;;;5.30;99.90;;;;;;5054073;28;20507;-67
2024/02/13 09:01:13;;;;;;;377.77;360.40;;;5.40;99.90;;;;;;5053914;28;20487;-66
2024/02/13 09:03:40;;;;;;;357.07;341.27;;;5.50;99.90;;;;;;5053757;28;20475;-66
2024/02/13 09:06:07;;;;;;;321.17;307.13;;;5.50;99.90;;;;;;5054215;28;20455;-66
2024/02/13 09:08:36;;;;;;;305.93;292.13;;;5.70;99.90;;;;;;5054395;28;20450;-66
2024/02/13 09:11:03;;;;;;;315.97;302.23;;;5.90;99.90;;;;;;5054517;28;20455;-66
2024/02/13 09:13:30;;;;;;;285.57;273.77;;;5.90;99.90;;;;;;5054419;28;21051;-67
2024/02/13 09:15:56;;;;;;;263.63;252.43;;;5.90;99.90;;;;;;5054528;28;20525;-65
2024/02/13 09:18:25;;;;;;;238.30;228.73;;;6.00;99.90;;;;;;5054556;28;20958;-66
2024/02/13 09:20:51;;;;;;;220.20;211.40;;;6.10;99.90;;;;;;5055058;28;20455;-66
2024/02/13 09:23:19;;;;;;;196.43;188.43;;;6.20;99.90;;;;;;5054028;28;20578;-66
2024/02/13 09:25:49;;;;;;;198.27;190.73;;;6.30;99.90;;;;;;5054758;28;20851;-66
2024/02/13 09:28:16;;;;;;;149.93;144.40;;;6.40;99.90;;;;;;5055147;28;20946;-66
2024/02/13 09:30:44;;;;;;;124.80;120.23;;;6.40;99.90;;;;;;5055884;28;20457;-66
2024/02/13 09:33:16;;;;;;;81.10;77.90;;;6.50;99.90;;;;;;5056244;28;20553;-67
2024/02/13 09:35:45;;;;;;;47.40;45.30;;;6.50;99.90;;;;;;5055304;28;20475;-67
2024/02/13 09:38:11;;;;;;;58.33;55.60;;;6.60;99.90;;;;;;5054866;28;20455;-67
2024/02/13 09:40:40;;;;;;;35.40;33.27;;;6.70;99.90;;;;;;5054079;28;20448;-66
2024/02/13 09:43:08;;;;;;;22.83;21.63;;;6.70;99.90;;;;;;5053491;28;20475;-66
2024/02/13 09:45:39;;;;;;;25.60;23.43;;;6.70;99.90;;;;;;5053911;28;20450;-68
2024/02/13 09:48:21;;;;;;;30.47;28.97;;;6.80;99.90;;;;;;5053790;28;20461;-68
2024/02/13 09:50:51;;;;;;;33.00;31.20;;;6.70;99.90;;;;;;5053831;28;20462;-68
2024/02/13 09:53:26;;;;;;;15.40;13.97;;;6.70;99.90;;;;;;5053746;28;20467;-69
2024/02/13 09:55:54;;;;;;;11.20;10.10;;;6.90;99.90;;;;;;5053092;28;20451;-68
2024/02/13 09:58:22;;;;;;;7.80;6.07;;;6.90;99.90;;;;;;5053628;28;20672;-69
2024/02/13 10:00:49;;;;;;;10.40;5.80;;;7.10;99.90;;;;;;5052465;28;20451;-68
2024/02/13 10:03:16;;;;;;;10.17;3.73;;;6.90;99.90;;;;;;5053845;28;20224;-69
2024/02/13 10:05:43;;;;;;;10.07;5.57;;;6.90;99.90;;;;;;5053693;28;20454;-68
2024/02/13 10:08:12;;;;;;;6.00;3.53;;;6.80;99.90;;;;;;5053544;28;20976;-68
2024/02/13 10:10:39;;;;;;;7.77;3.27;;;6.80;99.90;;;;;;5053451;28;20512;-69
2024/02/13 10:13:06;;;;;;;8.80;2.83;;;6.70;99.90;;;;;;5052711;28;20471;-68
2024/02/13 10:15:42;;;;;;;7.70;3.17;;;6.80;99.90;;;;;;5053395;28;20929;-69
2024/02/13 10:18:11;;;;;;;6.57;3.37;;;6.70;99.90;;;;;;5045970;28;20900;-68
2024/02/13 10:20:38;;;;;;;5.53;3.23;;;6.80;99.90;;;;;;5053490;28;20458;-68
2024/02/13 10:23:07;;;;;;;6.77;3.53;;;6.80;99.90;;;;;;5053066;28;20481;-69
2024/02/13 10:25:37;;;;;;;8.73;3.00;;;6.90;99.90;;;;;;5053103;28;20897;-67
2024/02/13 10:28:05;;;;;;;8.50;4.33;;;7.10;99.90;;;;;;5053245;28;20455;-68
2024/02/13 10:30:33;;;;;;;9.70;4.00;;;7.20;99.90;;;;;;5053230;28;20454;-67
2024/02/13 10:33:01;;;;;;;8.80;2.70;;;7.20;99.90;;;;;;5044559;28;21017;-68
2024/02/13 10:35:30;;;;;;;9.53;2.73;;;7.20;99.90;;;;;;5053023;28;20459;-69
2024/02/13 10:37:57;;;;;;;6.53;2.70;;;7.30;99.90;;;;;;5052864;28;20455;-67
2024/02/13 10:40:26;;;;;;;8.33;3.03;;;7.40;99.90;;;;;;5052844;28;20481;-68
2024/02/13 10:42:54;;;;;;;6.10;2.70;;;7.40;99.90;;;;;;5052587;28;20532;-68
2024/02/13 10:45:24;;;;;;;6.82;2.70;;;7.40;99.90;;;;;;5052004;28;20452;-67
2024/02/13 10:47:54;;;;;;;5.60;2.53;;;7.40;99.90;;;;;;5052946;28;20606;-69
2024/02/13 10:50:21;;;;;;;8.03;3.13;;;7.40;99.90;;;;;;5052793;28;20526;-68
2024/02/13 10:52:52;;;;;;;5.67;2.70;;;7.40;99.90;;;;;;5051911;28;20907;-69
2024/02/13 10:55:19;;;;;;;5.20;2.50;;;7.40;99.90;;;;;;5052713;28;20447;-69
2024/02/13 10:57:48;;;;;;;16.50;5.70;;;7.50;99.90;;;;;;5052694;28;20505;-68
2024/02/13 11:00:19;;;;;;;17.27;5.90;;;7.60;99.90;;;;;;5052408;28;20478;-68
2024/02/13 11:02:48;;;;;;;13.37;7.60;;;7.60;99.90;;;;;;5052119;28;20471;-68
2024/02/13 11:05:16;;;;;;;15.10;7.47;;;7.60;99.90;;;;;;5052136;28;20473;-67
2024/02/13 11:07:45;;;;;;;17.57;9.60;;;7.70;99.90;;;;;;5052414;28;20970;-68
2024/02/13 11:10:12;;;;;;;17.13;8.50;;;7.80;99.90;;;;;;5052471;28;20997;-68
2024/02/13 11:12:42;;;;;;;50.10;23.30;;;7.90;99.90;;;;;;5052093;28;20475;-68
2024/02/13 11:15:10;;;;;;;23.90;11.93;;;8.10;99.90;;;;;;5052517;28;20510;-68
2024/02/13 11:17:53;;;;;;;10.83;5.10;;;8.20;99.90;;;;;;5052192;28;21024;-67
2024/02/13 11:20:23;;;;;;;17.57;8.03;;;8.30;97.40;;;;;;5052464;28;20443;-69
2024/02/13 11:22:55;;;;;;;71.60;35.23;;;8.70;97.60;;;;;;5051658;28;20517;-69
2024/02/13 11:25:27;;;;;;;42.43;21.97;;;9.00;97.70;;;;;;5052343;28;20540;-69
2024/02/13 11:27:57;;;;;;;33.93;11.57;;;9.20;97.80;;;;;;5052029;28;21160;-69
2024/02/13 11:30:25;;;;;;;17.43;7.33;;;9.30;97.60;;;;;;5051802;28;20451;-69
2024/02/13 11:32:58;;;;;;;11.27;5.47;;;9.50;94.70;;;;;;5051619;28;20558;-68
2024/02/13 11:35:32;;;;;;;12.87;4.60;;;9.60;94.90;;;;;;5052211;28;20840;-70
2024/02/13 11:38:11;;;;;;;6.90;3.03;;;9.90;94.60;;;;;;5043770;28;20494;-68
2024/02/13 11:40:41;;;;;;;10.13;3.60;;;10.20;91.00;;;;;;5051808;28;20443;-70
2024/02/13 11:43:19;;;;;;;7.13;2.40;;;10.70;91.20;;;;;;5051629;28;20475;-68
2024/02/13 11:45:46;;;;;;;6.30;2.10;;;10.90;90.30;;;;;;5051991;28;20457;-69
2024/02/13 11:48:19;;;;;;;7.03;2.00;;;10.60;77.50;;;;;;5051991;28;20450;-69
2024/02/13 11:50:47;;;;;;;38.33;16.20;;;10.40;77.30;;;;;;5051328;28;20451;-69
2024/02/13 11:53:15;;;;;;;11.97;6.47;;;10.60;77.50;;;;;;5050484;28;20866;-69
2024/02/13 11:55:43;;;;;;;10.10;4.53;;;10.50;77.40;;;;;;5051746;28;20841;-68
2024/02/13 11:58:19;;;;;;;10.87;4.83;;;10.60;77.50;;;;;;5051383;28;20573;-69
2024/02/13 12:00:57;;;;;;;19.50;2.80;;;10.70;77.60;;;;;;5051696;28;20450;-69
2024/02/13 12:03:25;;;;;;;16.30;4.47;;;10.90;74.80;;;;;;5051785;28;20800;-69
2024/02/13 12:05:52;;;;;;;7.80;2.47;;;11.10;70.10;;;;;;5051264;28;20818;-69
2024/02/13 12:08:20;;;;;;;6.13;2.30;;;10.90;67.20;;;;;;5051353;28;20449;-68
2024/02/13 12:10:48;;;;;;;8.60;3.27;;;10.90;69.90;;;;;;5051415;28;21003;-68
2024/02/13 12:13:18;;;;;;;7.37;2.30;;;10.70;69.70;;;;;;5051098;28;20882;-67
2024/02/13 12:15:46;;;;;;;11.27;6.47;;;10.50;69.50;;;;;;5051472;28;20462;-68
2024/02/13 12:18:13;;;;;;;11.87;5.27;;;11.00;76.10;;;;;;5051227;28;20486;-67
2024/02/13 12:20:47;;;;;;;10.20;4.97;;;11.80;70.70;;;;;;5051583;28;20462;-67
2024/02/13 12:23:16;;;;;;;6.60;1.80;;;12.20;63.00;;;;;;5051360;28;20471;-68
2024/02/13 12:25:42;;;;;;;10.37;4.27;;;12.50;63.20;;;;;;5051367;28;20458;-68
2024/02/13 12:28:12;;;;;;;12.47;4.83;;;12.90;55.30;;;;;;5051208;28;20452;-67
2024/02/13 12:30:40;;;;;;;8.33;2.63;;;13.90;56.20;;;;;;5050923;28;20455;-67